createdAt,value
2018-09-01T00:01:29.736Z,10.76
2018-09-01T00:03:58.543Z,10.69
2018-09-01T00:06:27.194Z,10.60
2018-09-01T00:08:59.567Z,10.47
2018-09-01T00:11:28.307Z,10.33
2018-09-01T00:13:57.219Z,10.26
2018-09-01T00:16:26.099Z,10.18
2018-09-01T00:18:54.873Z,10.07
2018-09-01T00:21:24.419Z,9.94
2018-09-01T00:23:53.167Z,9.84
2018-09-01T00:26:22.118Z,9.77
2018-09-01T00:28:50.884Z,9.66
2018-09-01T00:31:19.767Z,9.55
2018-09-01T00:33:48.547Z,9.47
2018-09-01T00:36:17.246Z,9.37
2018-09-01T00:38:51.103Z,9.28
2018-09-01T00:41:19.860Z,9.20
2018-09-01T00:43:48.615Z,9.15
2018-09-01T00:46:17.366Z,9.10
2018-09-01T00:48:46.049Z,9.07
2018-09-01T00:51:14.845Z,9.09
2018-09-01T00:53:43.561Z,9.08
2018-09-01T00:56:12.343Z,9.03
2018-09-01T00:58:41.188Z,8.95
2018-09-01T01:01:09.844Z,8.88
2018-09-01T01:03:38.398Z,8.83
2018-09-01T01:06:07.103Z,8.88
2018-09-01T01:08:35.923Z,8.83
2018-09-01T01:11:04.612Z,8.75
2018-09-01T01:13:33.248Z,8.68
2018-09-01T01:16:01.987Z,8.65
2018-09-01T01:18:30.529Z,8.69
2018-09-01T01:20:59.226Z,8.62
2018-09-01T01:23:27.864Z,8.55
2018-09-01T01:25:56.515Z,8.55
2018-09-01T01:28:25.050Z,8.54
2018-09-01T01:30:53.695Z,8.51
2018-09-01T01:33:22.361Z,8.49
2018-09-01T01:35:51.076Z,8.46
2018-09-01T01:38:19.771Z,8.41
2018-09-01T01:40:48.417Z,8.39
2018-09-01T01:43:17.116Z,8.33
2018-09-01T01:45:45.797Z,8.27
2018-09-01T01:48:14.393Z,8.23
2018-09-01T01:50:42.998Z,8.18
2018-09-01T01:53:11.736Z,8.15
2018-09-01T01:55:40.295Z,8.11
2018-09-01T01:58:08.924Z,8.10
2018-09-01T02:00:37.645Z,8.09
2018-09-01T02:03:06.462Z,8.06
2018-09-01T02:05:36.624Z,8.01
2018-09-01T02:08:05.542Z,7.95
2018-09-01T02:10:34.239Z,7.94
2018-09-01T02:13:02.922Z,7.90
2018-09-01T02:15:31.651Z,7.89
2018-09-01T02:18:00.230Z,7.90
2018-09-01T02:20:29.214Z,7.88
2018-09-01T02:22:57.881Z,7.86
2018-09-01T02:25:26.520Z,7.83
2018-09-01T02:27:55.134Z,7.81
2018-09-01T02:30:23.831Z,7.80
2018-09-01T02:32:52.443Z,7.77
2018-09-01T02:35:21.229Z,7.77
2018-09-01T02:37:49.732Z,7.73
2018-09-01T02:40:18.583Z,7.69
2018-09-01T02:42:47.163Z,7.71
2018-09-01T02:45:16.057Z,7.72
2018-09-01T02:47:44.777Z,7.69
2018-09-01T02:50:13.433Z,7.66
2018-09-01T02:52:42.095Z,7.65
2018-09-01T02:55:10.734Z,7.65
2018-09-01T02:57:39.327Z,7.64
2018-09-01T03:00:13.218Z,7.65
2018-09-01T03:02:43.760Z,7.59
2018-09-01T03:05:13.583Z,7.55
2018-09-01T03:07:42.131Z,7.55
2018-09-01T03:10:10.971Z,7.56
2018-09-01T03:12:39.683Z,7.52
2018-09-01T03:15:08.547Z,7.47
2018-09-01T03:17:37.179Z,7.43
2018-09-01T03:20:05.898Z,7.50
2018-09-01T03:22:34.608Z,7.51
2018-09-01T03:25:03.137Z,7.49
2018-09-01T03:27:31.881Z,7.49
2018-09-01T03:30:00.394Z,7.55
2018-09-01T03:32:29.091Z,7.51
2018-09-01T03:34:57.633Z,7.46
2018-09-01T03:37:26.231Z,7.39
2018-09-01T03:39:54.758Z,7.36
2018-09-01T03:42:23.304Z,7.32
2018-09-01T03:44:51.901Z,7.27
2018-09-01T03:47:20.495Z,7.25
2018-09-01T03:49:49.167Z,7.21
2018-09-01T03:52:17.885Z,7.21
2018-09-01T03:54:46.526Z,7.20
2018-09-01T03:57:15.132Z,7.21
2018-09-01T03:59:43.715Z,7.22
2018-09-01T04:02:12.273Z,7.23
2018-09-01T04:04:40.951Z,7.25
2018-09-01T04:07:09.590Z,7.31
2018-09-01T04:09:38.289Z,7.31
2018-09-01T04:12:06.853Z,7.30
2018-09-01T04:14:35.462Z,7.31
2018-09-01T04:17:04.180Z,7.30
2018-09-01T04:19:32.823Z,7.27
2018-09-01T04:22:01.476Z,7.27
2018-09-01T04:24:30.100Z,7.24
2018-09-01T04:26:58.666Z,7.30
2018-09-01T04:29:27.299Z,7.31
2018-09-01T04:31:55.968Z,7.28
2018-09-01T04:34:24.534Z,7.31
2018-09-01T04:36:53.273Z,7.30
2018-09-01T04:39:21.895Z,7.25
2018-09-01T04:41:50.572Z,7.22
2018-09-01T04:44:19.136Z,7.19
2018-09-01T04:46:51.551Z,7.16
2018-09-01T04:49:20.141Z,7.13
2018-09-01T04:51:48.794Z,7.13
2018-09-01T04:54:17.340Z,7.14
2018-09-01T04:56:46.128Z,7.15
2018-09-01T04:59:14.645Z,7.18
2018-09-01T05:01:43.342Z,7.24
2018-09-01T05:04:12.145Z,7.28
2018-09-01T05:06:40.739Z,7.32
2018-09-01T05:09:09.344Z,7.38
2018-09-01T05:11:37.976Z,7.46
2018-09-01T05:14:06.712Z,7.57
2018-09-01T05:16:35.345Z,7.64
2018-09-01T05:19:04.051Z,7.67
2018-09-01T05:21:32.788Z,7.72
2018-09-01T05:24:01.422Z,7.77
2018-09-01T05:26:30.111Z,7.95
2018-09-01T05:28:58.725Z,8.35
2018-09-01T05:31:27.780Z,8.72
2018-09-01T05:33:56.389Z,9.01
2018-09-01T05:36:25.095Z,9.23
2018-09-01T05:38:53.765Z,9.41
2018-09-01T05:41:22.504Z,9.54
2018-09-01T05:43:51.198Z,9.59
2018-09-01T05:46:19.778Z,9.64
2018-09-01T05:48:48.396Z,9.66
2018-09-01T05:51:16.960Z,9.65
2018-09-01T05:53:45.535Z,9.68
2018-09-01T05:56:14.366Z,9.76
2018-09-01T05:58:42.992Z,9.88
2018-09-01T06:01:11.675Z,9.93
2018-09-01T06:03:40.384Z,10.03
2018-09-01T06:06:09.117Z,10.20
2018-09-01T06:08:37.884Z,10.40
2018-09-01T06:11:06.602Z,10.46
2018-09-01T06:13:35.332Z,10.56
2018-09-01T06:16:04.061Z,10.66
2018-09-01T06:18:33.753Z,10.84
2018-09-01T06:21:02.482Z,11.02
2018-09-01T06:23:31.259Z,11.12
2018-09-01T06:25:59.978Z,11.29
2018-09-01T06:28:33.110Z,11.50
2018-09-01T06:31:01.917Z,11.76
2018-09-01T06:33:30.615Z,11.98
2018-09-01T06:35:59.286Z,12.18
2018-09-01T06:38:27.996Z,12.39
2018-09-01T06:40:56.705Z,12.55
2018-09-01T06:43:25.509Z,12.71
2018-09-01T06:45:54.240Z,12.84
2018-09-01T06:48:25.084Z,12.97
2018-09-01T06:50:53.834Z,13.05
2018-09-01T06:53:22.573Z,13.08
2018-09-01T06:55:51.985Z,13.12
2018-09-01T06:58:20.706Z,13.25
2018-09-01T07:00:49.513Z,13.34
2018-09-01T07:03:18.111Z,13.45
2018-09-01T07:05:46.823Z,13.54
2018-09-01T07:08:15.488Z,13.62
2018-09-01T07:10:44.110Z,13.72
2018-09-01T07:13:12.835Z,13.76
2018-09-01T07:15:41.493Z,13.86
2018-09-01T07:18:10.355Z,13.92
2018-09-01T07:20:38.953Z,14.05
2018-09-01T07:23:07.662Z,14.12
2018-09-01T07:25:36.418Z,14.21
2018-09-01T07:28:05.135Z,14.30
2018-09-01T07:30:33.948Z,14.41
2018-09-01T07:33:02.517Z,14.50
2018-09-01T07:35:31.032Z,14.58
2018-09-01T07:37:59.731Z,14.65
2018-09-01T07:40:28.375Z,14.70
2018-09-01T07:42:56.988Z,14.81
2018-09-01T07:45:25.593Z,14.86
2018-09-01T07:47:55.207Z,14.94
2018-09-01T07:50:23.865Z,15.03
2018-09-01T07:52:52.586Z,15.10
2018-09-01T07:55:21.173Z,15.16
2018-09-01T07:57:50.235Z,15.32
2018-09-01T08:00:18.896Z,15.43
2018-09-01T08:02:47.572Z,15.57
2018-09-01T08:05:16.266Z,15.66
2018-09-01T08:07:44.984Z,15.69
2018-09-01T08:10:13.770Z,15.83
2018-09-01T08:12:42.487Z,15.96
2018-09-01T08:15:11.176Z,16.05
2018-09-01T08:17:39.918Z,16.09
2018-09-01T08:20:08.585Z,16.23
2018-09-01T08:22:37.304Z,16.28
2018-09-01T08:25:06.164Z,16.28
2018-09-01T08:27:34.880Z,16.32
2018-09-01T08:30:03.579Z,16.41
2018-09-01T08:32:32.315Z,16.50
2018-09-01T08:35:01.022Z,16.54
2018-09-01T08:37:29.736Z,16.63
2018-09-01T08:39:58.574Z,16.71
2018-09-01T08:42:27.208Z,16.72
2018-09-01T08:44:55.833Z,16.68
2018-09-01T08:47:24.442Z,16.70
2018-09-01T08:49:53.131Z,16.75
2018-09-01T08:52:21.823Z,16.81
2018-09-01T08:54:50.509Z,16.95
2018-09-01T08:57:19.188Z,17.06
2018-09-01T08:59:47.895Z,17.25
2018-09-01T09:02:16.586Z,17.37
2018-09-01T09:04:45.264Z,17.52
2018-09-01T09:07:13.996Z,17.62
2018-09-01T09:09:42.800Z,17.64
2018-09-01T09:12:11.530Z,17.83
2018-09-01T09:14:40.222Z,18.14
2018-09-01T09:17:08.975Z,18.42
2018-09-01T09:19:37.745Z,18.42
2018-09-01T09:22:06.441Z,18.50
2018-09-01T09:24:35.071Z,18.56
2018-09-01T09:27:03.830Z,18.66
2018-09-01T09:29:32.565Z,18.51
2018-09-01T09:32:01.283Z,18.48
2018-09-01T09:34:30.042Z,18.48
2018-09-01T09:36:58.620Z,18.49
2018-09-01T09:39:27.325Z,18.51
2018-09-01T09:41:56.156Z,18.65
2018-09-01T09:44:24.840Z,19.06
2018-09-01T09:46:53.619Z,19.43
2018-09-01T09:49:22.325Z,19.80
2018-09-01T09:51:51.046Z,20.05
2018-09-01T09:54:19.820Z,20.26
2018-09-01T09:56:48.471Z,20.08
2018-09-01T09:59:17.274Z,19.78
2018-09-01T10:01:45.984Z,19.63
2018-09-01T10:04:14.710Z,19.54
2018-09-01T10:06:43.427Z,19.41
2018-09-01T10:09:13.857Z,19.71
2018-09-01T10:11:43.429Z,20.03
2018-09-01T10:14:12.625Z,19.76
2018-09-01T10:16:42.042Z,19.59
2018-09-01T10:19:10.838Z,19.43
2018-09-01T10:21:39.786Z,19.49
2018-09-01T10:24:08.511Z,19.50
2018-09-01T10:26:37.216Z,19.74
2018-09-01T10:29:06.067Z,20.01
2018-09-01T10:31:34.830Z,20.32
2018-09-01T10:34:03.659Z,20.60
2018-09-01T10:36:32.330Z,20.80
2018-09-01T10:39:01.287Z,20.88
2018-09-01T10:41:30.207Z,20.80
2018-09-01T10:43:58.952Z,20.77
2018-09-01T10:46:27.671Z,20.80
2018-09-01T10:48:57.284Z,21.02
2018-09-01T10:51:25.922Z,21.00
2018-09-01T10:53:54.709Z,20.98
2018-09-01T10:56:23.335Z,21.15
2018-09-01T10:58:52.152Z,21.14
2018-09-01T11:01:20.867Z,21.04
2018-09-01T11:03:49.431Z,20.79
2018-09-01T11:06:18.136Z,20.44
2018-09-01T11:08:46.913Z,20.23
2018-09-01T11:11:15.659Z,20.19
2018-09-01T11:13:44.482Z,20.16
2018-09-01T11:16:13.257Z,20.14
2018-09-01T11:18:42.027Z,20.24
2018-09-01T11:21:10.815Z,20.59
2018-09-01T11:23:39.620Z,21.02
2018-09-01T11:26:08.366Z,21.43
2018-09-01T11:28:37.100Z,21.78
2018-09-01T11:31:06.248Z,22.08
2018-09-01T11:33:34.931Z,22.29
2018-09-01T11:36:03.736Z,22.48
2018-09-01T11:38:32.492Z,22.47
2018-09-01T11:41:01.150Z,22.23
2018-09-01T11:43:29.773Z,21.94
2018-09-01T11:45:58.414Z,21.96
2018-09-01T11:48:27.204Z,22.20
2018-09-01T11:50:55.932Z,22.49
2018-09-01T11:53:24.604Z,22.96
2018-09-01T11:55:53.366Z,23.16
2018-09-01T11:58:22.094Z,23.16
2018-09-01T12:00:50.942Z,23.19
2018-09-01T12:03:19.654Z,23.31
2018-09-01T12:05:48.280Z,23.59
2018-09-01T12:08:17.021Z,23.86
2018-09-01T12:10:45.892Z,24.01
2018-09-01T12:13:14.530Z,24.25
2018-09-01T12:15:43.287Z,24.59
2018-09-01T12:18:11.891Z,24.85
2018-09-01T12:20:40.624Z,24.83
2018-09-01T12:23:09.424Z,24.72
2018-09-01T12:25:38.317Z,24.44
2018-09-01T12:28:07.129Z,24.02
2018-09-01T12:30:36.027Z,23.68
2018-09-01T12:33:04.610Z,23.45
2018-09-01T12:35:33.435Z,23.29
2018-09-01T12:38:02.178Z,23.03
2018-09-01T12:40:30.840Z,23.13
2018-09-01T12:42:59.568Z,23.35
2018-09-01T12:45:28.284Z,23.50
2018-09-01T12:47:56.990Z,23.96
2018-09-01T12:50:25.674Z,24.55
2018-09-01T12:52:54.442Z,24.56
2018-09-01T12:55:23.224Z,24.87
2018-09-01T12:57:51.908Z,25.35
2018-09-01T13:00:20.670Z,26.04
2018-09-01T13:02:49.492Z,26.53
2018-09-01T13:05:18.226Z,26.56
2018-09-01T13:07:47.086Z,26.38
2018-09-01T13:10:15.715Z,25.54
2018-09-01T13:12:44.484Z,24.63
2018-09-01T13:15:13.208Z,23.84
2018-09-01T13:17:41.971Z,22.99
2018-09-01T13:20:10.644Z,22.56
2018-09-01T13:22:39.295Z,24.10
2018-09-01T13:25:08.197Z,27.02
2018-09-01T13:27:36.852Z,29.92
2018-09-01T13:30:05.589Z,31.69
2018-09-01T13:32:34.266Z,32.51
2018-09-01T13:35:03.454Z,32.90
2018-09-01T13:37:32.165Z,34.32
2018-09-01T13:40:00.761Z,35.34
2018-09-01T13:42:29.430Z,36.38
2018-09-01T13:44:57.977Z,37.54
2018-09-01T13:47:26.710Z,36.27
2018-09-01T13:49:55.509Z,34.55
2018-09-01T13:52:24.289Z,33.33
2018-09-01T13:54:53.007Z,33.17
2018-09-01T13:57:21.718Z,33.04
2018-09-01T13:59:50.351Z,31.63
2018-09-01T14:02:19.021Z,30.05
2018-09-01T14:04:47.810Z,29.11
2018-09-01T14:07:16.494Z,29.68
2018-09-01T14:09:45.252Z,30.34
2018-09-01T14:12:13.955Z,32.35
2018-09-01T14:14:42.726Z,31.68
2018-09-01T14:17:11.479Z,31.60
2018-09-01T14:19:40.377Z,31.55
2018-09-01T14:22:09.105Z,33.76
2018-09-01T14:24:37.714Z,35.90
2018-09-01T14:27:06.491Z,36.61
2018-09-01T14:29:35.102Z,35.66
2018-09-01T14:32:03.866Z,35.27
2018-09-01T14:34:32.654Z,36.56
2018-09-01T14:37:01.341Z,38.23
2018-09-01T14:39:29.921Z,39.45
2018-09-01T14:41:58.687Z,37.88
2018-09-01T14:44:27.517Z,35.55
2018-09-01T14:46:56.242Z,33.18
2018-09-01T14:49:24.973Z,31.25
2018-09-01T14:51:54.047Z,29.49
2018-09-01T14:54:22.665Z,27.96
2018-09-01T14:56:51.360Z,27.07
2018-09-01T14:59:20.156Z,26.39
2018-09-01T15:01:48.994Z,25.86
2018-09-01T15:04:17.609Z,25.43
2018-09-01T15:06:46.705Z,25.16
2018-09-01T15:09:15.467Z,25.10
2018-09-01T15:11:44.340Z,24.96
2018-09-01T15:14:13.753Z,24.90
2018-09-01T15:16:42.607Z,24.92
2018-09-01T15:19:11.332Z,25.00
2018-09-01T15:21:40.017Z,25.02
2018-09-01T15:24:08.779Z,25.07
2018-09-01T15:26:37.545Z,25.22
2018-09-01T15:29:06.297Z,26.12
2018-09-01T15:31:36.062Z,26.79
2018-09-01T15:34:04.773Z,27.00
2018-09-01T15:36:34.326Z,29.17
2018-09-01T15:39:02.980Z,31.55
2018-09-01T15:41:31.618Z,31.63
2018-09-01T15:44:00.373Z,29.90
2018-09-01T15:46:29.117Z,28.80
2018-09-01T15:48:57.850Z,27.93
2018-09-01T15:51:26.492Z,27.47
2018-09-01T15:53:55.477Z,27.20
2018-09-01T15:56:24.246Z,26.96
2018-09-01T15:58:53.039Z,26.62
2018-09-01T16:01:21.724Z,26.23
2018-09-01T16:03:50.566Z,25.68
2018-09-01T16:06:19.335Z,25.21
2018-09-01T16:08:47.979Z,24.33
2018-09-01T16:11:16.703Z,23.54
2018-09-01T16:13:45.418Z,22.93
2018-09-01T16:16:14.091Z,22.53
2018-09-01T16:18:42.735Z,22.09
2018-09-01T16:21:11.435Z,22.18
2018-09-01T16:23:40.201Z,22.40
2018-09-01T16:26:08.807Z,23.31
2018-09-01T16:28:37.516Z,24.72
2018-09-01T16:31:06.820Z,25.73
2018-09-01T16:33:35.519Z,26.55
2018-09-01T16:36:04.267Z,27.07
2018-09-01T16:38:32.964Z,27.77
2018-09-01T16:41:01.704Z,28.40
2018-09-01T16:43:30.412Z,28.64
2018-09-01T16:45:59.112Z,28.50
2018-09-01T16:48:27.812Z,28.64
2018-09-01T16:50:57.012Z,28.88
2018-09-01T16:53:25.732Z,28.67
2018-09-01T16:55:54.324Z,28.64
2018-09-01T16:58:22.941Z,28.56
2018-09-01T17:00:51.582Z,28.39
2018-09-01T17:03:20.298Z,28.14
2018-09-01T17:05:48.957Z,27.75
2018-09-01T17:08:17.602Z,27.41
2018-09-01T17:10:46.166Z,27.20
2018-09-01T17:13:15.348Z,26.81
2018-09-01T17:15:43.972Z,26.30
2018-09-01T17:18:12.765Z,25.74
2018-09-01T17:20:41.462Z,25.02
2018-09-01T17:23:10.250Z,24.35
2018-09-01T17:25:38.940Z,23.64
2018-09-01T17:28:07.756Z,22.96
2018-09-01T17:30:36.521Z,22.22
2018-09-01T17:33:05.286Z,21.57
2018-09-01T17:35:34.136Z,21.05
2018-09-01T17:38:02.798Z,20.49
2018-09-01T17:40:31.631Z,20.03
2018-09-01T17:43:00.542Z,19.61
2018-09-01T17:45:29.243Z,19.15
2018-09-01T17:47:57.883Z,18.74
2018-09-01T17:50:26.665Z,18.43
2018-09-01T17:52:55.515Z,18.17
2018-09-01T17:55:24.186Z,17.94
2018-09-01T17:57:52.865Z,17.73
2018-09-01T18:00:21.654Z,17.54
2018-09-01T18:02:50.187Z,17.42
2018-09-01T18:05:18.738Z,17.21
2018-09-01T18:07:47.344Z,16.96
2018-09-01T18:10:16.082Z,16.72
2018-09-01T18:12:44.691Z,16.48
2018-09-01T18:15:13.463Z,16.24
2018-09-01T18:17:42.207Z,16.10
2018-09-01T18:20:10.912Z,16.00
2018-09-01T18:22:39.482Z,15.77
2018-09-01T18:25:08.212Z,15.53
2018-09-01T18:27:36.867Z,15.38
2018-09-01T18:30:06.749Z,15.14
2018-09-01T18:32:35.501Z,14.84
2018-09-01T18:35:04.245Z,14.74
2018-09-01T18:37:32.977Z,14.56
2018-09-01T18:40:01.582Z,14.27
2018-09-01T18:42:30.177Z,13.94
2018-09-01T18:44:58.914Z,13.73
2018-09-01T18:47:27.528Z,13.52
2018-09-01T18:49:56.144Z,13.38
2018-09-01T18:52:24.764Z,13.29
2018-09-01T18:54:53.551Z,13.25
2018-09-01T18:57:22.666Z,13.15
2018-09-01T18:59:51.341Z,13.04
2018-09-01T19:02:20.094Z,12.97
2018-09-01T19:04:48.903Z,12.89
2018-09-01T19:07:17.386Z,12.79
2018-09-01T19:09:46.059Z,12.74
2018-09-01T19:12:14.751Z,12.67
2018-09-01T19:14:43.426Z,12.59
2018-09-01T19:17:12.142Z,12.55
2018-09-01T19:19:40.699Z,12.54
2018-09-01T19:22:09.302Z,12.50
2018-09-01T19:24:38.036Z,12.45
2018-09-01T19:27:06.775Z,12.43
2018-09-01T19:29:35.451Z,12.42
2018-09-01T19:32:04.099Z,12.37
2018-09-01T19:34:32.740Z,12.31
2018-09-01T19:37:01.317Z,12.29
2018-09-01T19:39:29.962Z,12.23
2018-09-01T19:41:58.587Z,12.18
2018-09-01T19:44:27.219Z,12.14
2018-09-01T19:46:55.940Z,12.10
2018-09-01T19:49:24.654Z,12.06
2018-09-01T19:51:53.290Z,12.05
2018-09-01T19:54:22.003Z,12.04
2018-09-01T19:56:50.797Z,12.01
2018-09-01T19:59:19.591Z,12.05
2018-09-01T20:01:48.246Z,12.17
2018-09-01T20:04:17.904Z,12.46
2018-09-01T20:06:46.459Z,12.85
2018-09-01T20:09:15.245Z,13.16
2018-09-01T20:11:44.022Z,13.34
2018-09-01T20:14:13.012Z,13.54
2018-09-01T20:16:41.597Z,13.79
2018-09-01T20:19:10.264Z,13.91
2018-09-01T20:21:38.901Z,13.97
2018-09-01T20:24:07.633Z,14.09
2018-09-01T20:26:36.393Z,14.20
2018-09-01T20:29:05.047Z,14.26
2018-09-01T20:31:33.816Z,14.25
2018-09-01T20:34:02.491Z,14.28
2018-09-01T20:36:31.072Z,14.34
2018-09-01T20:38:59.882Z,14.39
2018-09-01T20:41:28.590Z,14.31
2018-09-01T20:43:57.251Z,14.28
2018-09-01T20:46:25.932Z,14.15
2018-09-01T20:48:54.591Z,14.01
2018-09-01T20:51:23.268Z,13.78
2018-09-01T20:53:51.984Z,13.52
2018-09-01T20:56:20.804Z,13.41
2018-09-01T20:58:49.443Z,13.50
2018-09-01T21:01:18.132Z,13.69
2018-09-01T21:03:46.750Z,13.72
2018-09-01T21:06:15.486Z,13.68
2018-09-01T21:08:44.003Z,13.77
2018-09-01T21:11:12.728Z,13.87
2018-09-01T21:13:41.536Z,13.90
2018-09-01T21:16:10.250Z,13.88
2018-09-01T21:18:38.900Z,13.89
2018-09-01T21:21:07.531Z,13.81
2018-09-01T21:23:36.067Z,13.72
2018-09-01T21:26:04.710Z,13.51
2018-09-01T21:28:33.314Z,13.34
2018-09-01T21:31:02.038Z,13.19
2018-09-01T21:33:30.714Z,13.15
2018-09-01T21:35:59.504Z,13.19
2018-09-01T21:38:28.191Z,13.27
2018-09-01T21:40:56.856Z,13.28
2018-09-01T21:43:25.728Z,13.35
2018-09-01T21:45:54.406Z,13.50
2018-09-01T21:48:23.073Z,13.53
2018-09-01T21:50:51.774Z,13.58
2018-09-01T21:53:20.419Z,13.60
2018-09-01T21:55:49.102Z,13.64
2018-09-01T21:58:17.635Z,13.50
2018-09-01T22:00:50.302Z,13.26
2018-09-01T22:03:20.163Z,12.97
2018-09-01T22:05:48.914Z,12.73
2018-09-01T22:08:17.594Z,12.63
2018-09-01T22:10:46.281Z,12.62
2018-09-01T22:13:15.060Z,12.63
2018-09-01T22:15:43.756Z,12.67
2018-09-01T22:18:12.444Z,12.70
2018-09-01T22:20:41.152Z,12.79
2018-09-01T22:23:09.787Z,12.76
2018-09-01T22:25:38.448Z,12.73
2018-09-01T22:28:06.991Z,12.70
2018-09-01T22:30:35.705Z,12.80
2018-09-01T22:33:04.340Z,12.78
2018-09-01T22:35:34.060Z,12.80
2018-09-01T22:38:02.755Z,12.81
2018-09-01T22:40:31.361Z,12.79
2018-09-01T22:43:00.125Z,12.69
2018-09-01T22:45:28.742Z,12.61
2018-09-01T22:47:57.431Z,12.50
2018-09-01T22:50:26.076Z,12.36
2018-09-01T22:52:54.656Z,12.22
2018-09-01T22:55:23.303Z,12.19
2018-09-01T22:57:51.939Z,12.06
2018-09-01T23:00:20.476Z,11.94
2018-09-01T23:02:49.111Z,11.87
2018-09-01T23:05:17.856Z,11.81
2018-09-01T23:07:46.448Z,11.70
2018-09-01T23:10:15.096Z,11.61
2018-09-01T23:12:43.800Z,11.57
2018-09-01T23:15:13.736Z,11.63
2018-09-01T23:17:42.417Z,11.73
2018-09-01T23:20:11.138Z,11.80
2018-09-01T23:22:39.773Z,11.92
2018-09-01T23:25:08.430Z,12.15
2018-09-01T23:27:37.075Z,12.31
2018-09-01T23:30:05.650Z,12.43
2018-09-01T23:32:34.426Z,12.48
2018-09-01T23:35:03.107Z,12.53
2018-09-01T23:37:31.779Z,12.56
2018-09-01T23:40:00.400Z,12.58
2018-09-01T23:42:29.150Z,12.54
2018-09-01T23:44:57.831Z,12.47
2018-09-01T23:47:26.495Z,12.34
2018-09-01T23:49:55.075Z,12.17
2018-09-01T23:52:23.670Z,11.96
2018-09-01T23:54:52.355Z,11.74
2018-09-01T23:57:20.940Z,11.56
2018-09-01T23:59:49.619Z,11.44
